createdAt,value
2023-05-22T00:00:54.887Z,95.95
2023-05-22T00:06:00.160Z,96.19
2023-05-22T00:11:01.578Z,94.76
2023-05-22T00:16:03.336Z,94.73
2023-05-22T00:21:04.752Z,92.79
2023-05-22T00:26:06.177Z,94.74
2023-05-22T00:31:07.591Z,92.24
2023-05-22T00:36:09.118Z,92.24
2023-05-22T00:41:10.626Z,92.52
2023-05-22T00:46:12.635Z,92.45
2023-05-22T00:51:14.788Z,91.97
2023-05-22T00:56:16.904Z,92.80
2023-05-22T01:01:18.376Z,92.22
2023-05-22T01:06:21.451Z,91.29
2023-05-22T01:11:28.379Z,92.19
2023-05-22T01:16:39.508Z,90.90
2023-05-22T01:21:59.537Z,90.76
2023-05-22T01:27:07.313Z,90.53
2023-05-22T01:32:10.659Z,89.97
2023-05-22T01:37:13.260Z,89.94
2023-05-22T01:42:14.940Z,90.82
2023-05-22T01:47:17.933Z,91.06
2023-05-22T01:52:38.123Z,90.78
2023-05-22T01:58:00.113Z,92.01
2023-05-22T02:03:06.324Z,93.23
2023-05-22T02:08:08.085Z,91.80
2023-05-22T02:13:13.949Z,92.96
2023-05-22T02:18:15.401Z,93.96
2023-05-22T02:23:17.926Z,94.75
2023-05-22T02:28:19.320Z,95.72
2023-05-22T02:33:21.370Z,96.36
2023-05-22T02:38:24.478Z,96.75
2023-05-22T02:43:26.530Z,97.47
2023-05-22T02:48:29.226Z,100.00
2023-05-22T02:53:30.700Z,100.00
2023-05-22T02:58:32.101Z,100.00
2023-05-22T03:03:34.014Z,100.00
2023-05-22T03:08:38.250Z,100.00
2023-05-22T03:13:39.692Z,100.00
2023-05-22T03:18:41.445Z,100.00
2023-05-22T03:23:44.766Z,100.00
2023-05-22T03:28:46.424Z,100.00
2023-05-22T03:33:48.536Z,100.00
2023-05-22T03:38:50.556Z,100.00
2023-05-22T03:43:52.267Z,100.00
2023-05-22T03:48:54.055Z,100.00
2023-05-22T03:53:55.581Z,100.00
2023-05-22T03:58:57.008Z,100.00
2023-05-22T04:03:58.516Z,100.00
2023-05-22T04:09:00.594Z,100.00
2023-05-22T04:14:03.329Z,100.00
2023-05-22T04:19:04.812Z,100.00
2023-05-22T04:24:10.784Z,100.00
2023-05-22T04:29:14.497Z,100.00
2023-05-22T04:34:16.658Z,100.00
2023-05-22T04:39:18.074Z,100.00
2023-05-22T04:44:22.777Z,100.00
2023-05-22T04:49:26.823Z,100.00
2023-05-22T04:54:28.264Z,100.00
2023-05-22T04:59:31.580Z,100.00
2023-05-22T05:04:33.770Z,100.00
2023-05-22T05:09:35.474Z,100.00
2023-05-22T05:14:36.922Z,100.00
2023-05-22T05:19:38.417Z,100.00
2023-05-22T05:24:39.900Z,100.00
2023-05-22T05:29:41.683Z,100.00
2023-05-22T05:34:51.979Z,100.00
2023-05-22T05:40:11.984Z,100.00
2023-05-22T05:45:18.403Z,100.00
2023-05-22T05:50:20.091Z,100.00
2023-05-22T05:55:22.343Z,100.00
2023-05-22T06:00:23.980Z,100.00
2023-05-22T06:05:27.012Z,100.00
2023-05-22T06:10:36.033Z,100.00
2023-05-22T06:15:47.122Z,100.00
2023-05-22T06:20:48.817Z,100.00
2023-05-22T06:25:50.358Z,100.00
2023-05-22T06:30:52.282Z,100.00
2023-05-22T06:35:56.618Z,100.00
2023-05-22T06:40:58.318Z,100.00
2023-05-22T06:46:01.527Z,100.00
2023-05-22T06:51:17.940Z,100.00
2023-05-22T06:56:25.261Z,100.00
2023-05-22T07:01:29.563Z,100.00
2023-05-22T07:06:41.718Z,100.00
2023-05-22T07:11:43.869Z,100.00
2023-05-22T07:16:46.739Z,100.00
2023-05-22T07:21:53.811Z,100.00
2023-05-22T07:26:56.632Z,100.00
2023-05-22T07:31:58.258Z,100.00
2023-05-22T07:37:01.449Z,98.23
2023-05-22T07:42:04.796Z,97.44
2023-05-22T07:47:09.511Z,97.55
2023-05-22T07:52:11.195Z,96.97
2023-05-22T07:57:13.444Z,96.38
2023-05-22T08:02:17.579Z,96.03
2023-05-22T08:07:19.090Z,96.71
2023-05-22T08:12:20.553Z,94.51
2023-05-22T08:17:22.053Z,94.95
2023-05-22T08:22:23.637Z,95.84
2023-05-22T08:27:25.042Z,96.49
2023-05-22T08:32:26.994Z,95.10
2023-05-22T08:37:29.518Z,93.75
2023-05-22T08:42:31.117Z,95.00
2023-05-22T08:47:35.025Z,95.79
2023-05-22T08:52:47.863Z,96.78
2023-05-22T08:57:52.798Z,95.85
2023-05-22T09:02:55.759Z,95.59
2023-05-22T09:08:02.611Z,93.28
2023-05-22T09:13:09.121Z,91.63
2023-05-22T09:18:11.261Z,94.04
2023-05-22T09:23:14.464Z,94.44
2023-05-22T09:28:15.943Z,94.97
2023-05-22T09:33:18.277Z,94.04
2023-05-22T09:38:21.548Z,94.44
2023-05-22T09:43:25.215Z,93.84
2023-05-22T09:48:26.806Z,93.59
2023-05-22T09:53:28.933Z,93.03
2023-05-22T09:58:31.070Z,92.00
2023-05-22T10:03:34.537Z,90.14
2023-05-22T10:08:38.606Z,90.24
2023-05-22T10:13:41.133Z,90.65
2023-05-22T10:18:45.657Z,90.60
2023-05-22T10:23:48.495Z,89.38
2023-05-22T10:28:54.012Z,87.73
2023-05-22T10:33:59.617Z,86.34
2023-05-22T10:39:08.102Z,86.28
2023-05-22T10:44:09.972Z,84.79
2023-05-22T10:49:19.829Z,86.69
2023-05-22T10:54:36.514Z,83.66
2023-05-22T10:59:38.220Z,83.58
2023-05-22T11:04:39.792Z,83.19
2023-05-22T11:09:45.854Z,80.89
2023-05-22T11:15:06.869Z,81.09
2023-05-22T11:20:26.721Z,82.30
2023-05-22T11:25:30.139Z,83.55
2023-05-22T11:30:32.532Z,82.70
2023-05-22T11:35:34.077Z,82.10
2023-05-22T11:40:35.513Z,80.72
2023-05-22T11:45:37.877Z,83.14
2023-05-22T11:50:42.607Z,81.85
2023-05-22T11:55:44.295Z,82.50
2023-05-22T12:00:45.749Z,78.71
2023-05-22T12:05:47.265Z,76.88
2023-05-22T12:10:52.374Z,79.38
2023-05-22T12:15:56.125Z,78.83
2023-05-22T12:20:57.565Z,77.17
2023-05-22T12:25:59.868Z,76.72
2023-05-22T12:31:01.344Z,76.42
2023-05-22T12:36:07.252Z,75.80
2023-05-22T12:41:08.706Z,74.35
2023-05-22T12:46:10.138Z,76.20
2023-05-22T12:51:11.601Z,76.22
2023-05-22T12:56:13.036Z,75.69
2023-05-22T13:01:14.627Z,74.06
2023-05-22T13:06:16.211Z,75.76
2023-05-22T13:11:19.961Z,72.91
2023-05-22T13:16:21.479Z,74.78
2023-05-22T13:21:25.091Z,72.50
2023-05-22T13:26:27.815Z,73.01
2023-05-22T13:31:29.324Z,73.53
2023-05-22T13:36:30.863Z,72.33
2023-05-22T13:41:32.322Z,73.65
2023-05-22T13:46:33.753Z,74.48
2023-05-22T13:51:35.594Z,72.36
2023-05-22T13:56:37.036Z,73.46
2023-05-22T14:01:38.521Z,71.96
2023-05-22T14:06:40.197Z,71.11
2023-05-22T14:11:41.767Z,72.21
2023-05-22T14:16:43.280Z,71.14
2023-05-22T14:21:45.177Z,71.22
2023-05-22T14:26:46.584Z,71.38
2023-05-22T14:31:51.436Z,69.60
2023-05-22T14:36:53.388Z,68.73
2023-05-22T14:41:54.931Z,68.31
2023-05-22T14:46:56.388Z,68.36
2023-05-22T14:51:57.881Z,70.18
2023-05-22T14:56:59.277Z,69.39
2023-05-22T15:02:00.848Z,68.17
2023-05-22T15:07:02.257Z,70.87
2023-05-22T15:12:03.701Z,68.89
2023-05-22T15:17:05.203Z,69.45
2023-05-22T15:22:19.641Z,67.95
2023-05-22T15:27:21.776Z,69.21
2023-05-22T15:32:23.771Z,67.76
2023-05-22T15:37:25.170Z,69.30
2023-05-22T15:42:28.445Z,69.61
2023-05-22T15:47:29.980Z,67.53
2023-05-22T15:52:31.421Z,67.23
2023-05-22T15:57:34.044Z,67.23
2023-05-22T16:02:35.518Z,67.57
2023-05-22T16:07:37.024Z,68.68
2023-05-22T16:12:39.137Z,68.87
2023-05-22T16:17:40.597Z,68.97
2023-05-22T16:22:48.597Z,69.88
2023-05-22T16:27:50.509Z,70.44
2023-05-22T16:32:52.104Z,70.93
2023-05-22T16:37:53.515Z,70.90
2023-05-22T16:42:54.963Z,69.86
2023-05-22T16:47:56.415Z,72.03
2023-05-22T16:52:57.792Z,71.53
2023-05-22T16:57:59.987Z,70.76
2023-05-22T17:03:02.938Z,70.45
2023-05-22T17:08:04.773Z,70.53
2023-05-22T17:13:06.326Z,69.04
2023-05-22T17:18:07.813Z,70.04
2023-05-22T17:23:09.224Z,70.98
2023-05-22T17:28:10.697Z,71.82
2023-05-22T17:33:12.743Z,73.73
2023-05-22T17:38:14.296Z,74.05
2023-05-22T17:43:18.843Z,76.86
2023-05-22T17:48:26.835Z,78.60
2023-05-22T17:53:33.874Z,80.02
2023-05-22T17:58:35.376Z,80.46
2023-05-22T18:03:36.860Z,80.10
2023-05-22T18:08:39.880Z,80.09
2023-05-22T18:13:41.469Z,80.73
2023-05-22T18:18:42.886Z,80.47
2023-05-22T18:23:44.335Z,78.32
2023-05-22T18:28:48.169Z,78.18
2023-05-22T18:33:49.640Z,77.40
2023-05-22T18:38:51.116Z,78.47
2023-05-22T18:43:52.529Z,79.27
2023-05-22T18:48:54.425Z,80.35
2023-05-22T18:53:55.929Z,81.54
2023-05-22T18:58:57.328Z,82.13
2023-05-22T19:03:58.777Z,82.96
2023-05-22T19:09:00.416Z,81.86
2023-05-22T19:14:02.127Z,83.01
2023-05-22T19:19:03.651Z,83.56
2023-05-22T19:24:05.550Z,83.95
2023-05-22T19:29:07.145Z,82.82
2023-05-22T19:34:08.595Z,82.65
2023-05-22T19:39:10.066Z,82.26
2023-05-22T19:44:11.477Z,82.81
2023-05-22T19:49:13.199Z,81.94
2023-05-22T19:54:14.737Z,81.33
2023-05-22T19:59:16.141Z,81.49
2023-05-22T20:04:17.641Z,81.77
2023-05-22T20:09:19.067Z,82.63
2023-05-22T20:14:20.994Z,82.39
2023-05-22T20:19:24.149Z,83.00
2023-05-22T20:24:25.654Z,82.57
2023-05-22T20:29:27.088Z,83.40
2023-05-22T20:34:28.816Z,83.32
2023-05-22T20:39:30.430Z,82.68
2023-05-22T20:44:32.293Z,81.28
2023-05-22T20:49:34.563Z,80.58
2023-05-22T20:54:36.008Z,77.34
2023-05-22T20:59:37.507Z,78.03
2023-05-22T21:04:39.042Z,77.04
2023-05-22T21:09:40.706Z,76.40
2023-05-22T21:14:43.925Z,76.03
2023-05-22T21:19:46.129Z,76.45
2023-05-22T21:24:47.867Z,76.84
2023-05-22T21:29:49.363Z,77.29
2023-05-22T21:34:50.936Z,78.20
2023-05-22T21:39:52.343Z,78.51
2023-05-22T21:44:54.359Z,79.68
2023-05-22T21:49:55.779Z,80.54
2023-05-22T21:54:57.860Z,81.09
2023-05-22T21:59:59.291Z,81.43
2023-05-22T22:05:00.710Z,82.28
2023-05-22T22:10:02.154Z,80.94
2023-05-22T22:15:03.694Z,80.69
2023-05-22T22:20:05.779Z,81.12
2023-05-22T22:25:07.624Z,81.81
2023-05-22T22:30:09.762Z,82.07
2023-05-22T22:35:11.248Z,82.57
2023-05-22T22:40:12.761Z,84.18
2023-05-22T22:45:14.762Z,84.39
2023-05-22T22:50:16.722Z,84.08
2023-05-22T22:55:18.150Z,84.41
2023-05-22T23:00:20.155Z,84.44
2023-05-22T23:05:21.678Z,85.93
2023-05-22T23:10:23.342Z,84.96
2023-05-22T23:15:24.879Z,86.03
2023-05-22T23:20:26.306Z,87.54
2023-05-22T23:25:27.698Z,86.27
2023-05-22T23:30:29.105Z,85.14
2023-05-22T23:35:30.973Z,86.09
2023-05-22T23:40:32.389Z,86.02
2023-05-22T23:45:33.796Z,85.26
2023-05-22T23:50:36.110Z,86.78
2023-05-22T23:55:37.534Z,87.27
